createdAt,value
2019-02-28T00:00:59.441Z,205.23
2019-02-28T00:03:28.714Z,221.73
2019-02-28T00:05:57.901Z,228.83
2019-02-28T00:08:27.133Z,229.10
2019-02-28T00:10:57.333Z,258.67
2019-02-28T00:13:26.489Z,241.90
2019-02-28T00:15:55.885Z,231.53
2019-02-28T00:18:25.191Z,243.23
2019-02-28T00:20:54.406Z,253.60
2019-02-28T00:23:25.351Z,260.73
2019-02-28T00:25:54.538Z,255.70
2019-02-28T00:28:25.909Z,220.63
2019-02-28T00:30:54.707Z,197.00
2019-02-28T00:33:23.955Z,187.37
2019-02-28T00:35:53.135Z,171.63
2019-02-28T00:38:22.356Z,160.67
2019-02-28T00:40:51.587Z,219.83
2019-02-28T00:43:22.273Z,258.80
2019-02-28T00:45:52.160Z,283.13
2019-02-28T00:48:21.585Z,267.23
2019-02-28T00:50:51.596Z,264.67
2019-02-28T00:53:20.761Z,280.87
2019-02-28T00:55:49.922Z,273.70
2019-02-28T00:58:19.154Z,291.10
2019-02-28T01:00:48.340Z,300.40
2019-02-28T01:03:17.682Z,310.30
2019-02-28T01:05:47.200Z,300.27
2019-02-28T01:08:19.177Z,323.33
2019-02-28T01:10:47.444Z,312.10
2019-02-28T01:13:16.643Z,320.17
2019-02-28T01:15:45.928Z,270.23
2019-02-28T01:18:15.047Z,221.80
2019-02-28T01:20:44.253Z,208.03
2019-02-28T01:23:13.375Z,195.37
2019-02-28T01:25:42.533Z,177.97
2019-02-28T01:28:11.699Z,157.67
2019-02-28T01:30:41.248Z,191.13
2019-02-28T01:33:11.739Z,335.00
2019-02-28T01:35:41.522Z,323.43
2019-02-28T01:38:10.821Z,307.03
2019-02-28T01:40:40.057Z,311.03
2019-02-28T01:43:09.243Z,300.67
2019-02-28T01:45:43.413Z,315.97
2019-02-28T01:48:09.316Z,319.33
2019-02-28T01:50:38.475Z,294.20
2019-02-28T01:53:07.645Z,294.03
2019-02-28T01:55:36.761Z,328.67
2019-02-28T01:58:11.004Z,388.67
2019-02-28T02:00:40.166Z,408.77
2019-02-28T02:03:10.113Z,358.73
2019-02-28T02:05:39.410Z,389.50
2019-02-28T02:08:08.721Z,403.13
2019-02-28T02:10:37.868Z,360.93
2019-02-28T02:13:07.048Z,364.07
2019-02-28T02:15:36.321Z,341.63
2019-02-28T02:18:06.349Z,319.07
2019-02-28T02:20:36.874Z,292.90
2019-02-28T02:23:06.166Z,280.27
2019-02-28T02:25:37.515Z,273.07
2019-02-28T02:28:07.441Z,241.10
2019-02-28T02:30:36.598Z,314.03
2019-02-28T02:33:05.752Z,339.67
2019-02-28T02:35:35.080Z,363.13
2019-02-28T02:38:04.851Z,360.87
2019-02-28T02:40:34.299Z,362.40
2019-02-28T02:43:04.892Z,387.80
2019-02-28T02:45:41.881Z,337.70
2019-02-28T02:48:07.868Z,392.37
2019-02-28T02:50:37.057Z,379.83
2019-02-28T02:53:08.016Z,380.57
2019-02-28T02:55:41.436Z,365.27
2019-02-28T02:58:14.140Z,390.17
2019-02-28T03:00:49.743Z,344.10
2019-02-28T03:03:17.408Z,354.10
2019-02-28T03:05:46.713Z,328.30
2019-02-28T03:08:15.952Z,345.70
2019-02-28T03:10:45.156Z,306.10
2019-02-28T03:13:14.317Z,285.90
2019-02-28T03:15:43.574Z,392.40
2019-02-28T03:18:12.801Z,406.53
2019-02-28T03:20:42.466Z,393.03
2019-02-28T03:23:12.105Z,391.53
2019-02-28T03:25:41.287Z,364.77
2019-02-28T03:28:10.568Z,387.47
2019-02-28T03:30:39.845Z,398.20
2019-02-28T03:33:09.055Z,429.43
2019-02-28T03:35:43.037Z,367.07
2019-02-28T03:38:11.523Z,345.07
2019-02-28T03:40:41.219Z,400.33
2019-02-28T03:43:11.138Z,358.47
2019-02-28T03:45:40.610Z,351.73
2019-02-28T03:48:09.900Z,321.30
2019-02-28T03:50:39.161Z,296.60
2019-02-28T03:53:08.671Z,314.30
2019-02-28T03:55:40.810Z,293.53
2019-02-28T03:58:08.729Z,275.23
2019-02-28T04:00:37.896Z,393.17
2019-02-28T04:03:07.050Z,379.43
2019-02-28T04:05:36.225Z,370.03
2019-02-28T04:08:09.407Z,350.33
2019-02-28T04:10:38.578Z,381.90
2019-02-28T04:13:07.798Z,385.30
2019-02-28T04:15:43.273Z,430.30
2019-02-28T04:18:10.337Z,503.80
2019-02-28T04:20:39.585Z,458.17
2019-02-28T04:23:08.782Z,377.60
2019-02-28T04:25:37.957Z,417.27
2019-02-28T04:28:07.117Z,463.80
2019-02-28T04:30:42.192Z,418.87
2019-02-28T04:33:07.282Z,529.57
2019-02-28T04:35:47.188Z,518.30
2019-02-28T04:38:20.505Z,514.07
2019-02-28T04:40:47.929Z,545.87
2019-02-28T04:43:17.065Z,495.93
2019-02-28T04:45:46.219Z,606.00
2019-02-28T04:48:15.381Z,561.07
2019-02-28T04:50:45.663Z,541.20
2019-02-28T04:53:14.711Z,546.30
2019-02-28T04:55:44.108Z,545.73
2019-02-28T04:58:14.289Z,552.87
2019-02-28T05:00:44.879Z,594.10
2019-02-28T05:03:15.024Z,565.00
2019-02-28T05:05:47.642Z,595.63
2019-02-28T05:08:21.301Z,555.87
2019-02-28T05:10:55.657Z,573.93
2019-02-28T05:13:21.518Z,566.33
2019-02-28T05:15:50.931Z,564.80
2019-02-28T05:18:20.024Z,559.60
2019-02-28T05:20:49.205Z,595.10
2019-02-28T05:23:18.352Z,586.90
2019-02-28T05:25:49.137Z,611.70
2019-02-28T05:28:18.516Z,627.83
2019-02-28T05:30:50.193Z,825.97
2019-02-28T05:33:18.664Z,626.50
2019-02-28T05:35:47.942Z,661.60
2019-02-28T05:38:20.794Z,668.63
2019-02-28T05:40:48.366Z,748.60
2019-02-28T05:43:18.646Z,735.63
2019-02-28T05:45:49.546Z,694.23
2019-02-28T05:48:18.803Z,754.20
2019-02-28T05:50:52.852Z,660.73
2019-02-28T05:53:18.739Z,708.33
2019-02-28T05:55:47.996Z,764.63
2019-02-28T05:58:18.378Z,758.93
2019-02-28T06:00:47.991Z,722.37
2019-02-28T06:03:17.193Z,743.17
2019-02-28T06:05:47.106Z,749.07
2019-02-28T06:08:16.418Z,779.77
2019-02-28T06:10:45.585Z,748.50
2019-02-28T06:13:18.283Z,795.87
2019-02-28T06:15:46.829Z,833.07
2019-02-28T06:18:16.412Z,822.33
2019-02-28T06:20:51.035Z,745.10
2019-02-28T06:23:16.828Z,751.23
2019-02-28T06:25:46.006Z,716.40
2019-02-28T06:28:15.169Z,736.20
2019-02-28T06:30:46.965Z,726.73
2019-02-28T06:33:21.114Z,694.57
2019-02-28T06:35:54.548Z,701.93
2019-02-28T06:38:24.862Z,793.83
2019-02-28T06:40:54.024Z,827.50
2019-02-28T06:43:23.168Z,783.53
2019-02-28T06:45:52.910Z,788.07
2019-02-28T06:48:25.753Z,821.70
2019-02-28T06:50:55.276Z,801.43
2019-02-28T06:53:24.437Z,770.37
2019-02-28T06:55:53.552Z,744.77
2019-02-28T06:58:22.768Z,732.53
2019-02-28T07:00:52.686Z,730.93
2019-02-28T07:03:23.200Z,738.20
2019-02-28T07:05:57.520Z,714.70
2019-02-28T07:08:28.803Z,701.07
2019-02-28T07:10:56.680Z,693.73
2019-02-28T07:13:25.950Z,688.40
2019-02-28T07:15:59.832Z,681.67
2019-02-28T07:18:30.420Z,708.70
2019-02-28T07:20:59.560Z,687.27
2019-02-28T07:23:29.994Z,676.50
2019-02-28T07:26:01.023Z,648.03
2019-02-28T07:28:30.274Z,662.87
2019-02-28T07:30:59.495Z,658.47
2019-02-28T07:33:28.647Z,630.17
2019-02-28T07:35:57.845Z,629.43
2019-02-28T07:38:28.969Z,624.93
2019-02-28T07:40:58.039Z,627.20
2019-02-28T07:43:27.249Z,640.67
2019-02-28T07:45:56.500Z,619.23
2019-02-28T07:48:29.227Z,606.90
2019-02-28T07:50:59.070Z,612.70
2019-02-28T07:53:27.508Z,624.53
2019-02-28T07:56:03.740Z,629.83
2019-02-28T07:58:33.646Z,623.90
2019-02-28T08:01:03.019Z,699.93
2019-02-28T08:03:32.187Z,644.83
2019-02-28T08:06:04.385Z,588.20
2019-02-28T08:08:32.170Z,592.27
2019-02-28T08:11:01.314Z,545.73
2019-02-28T08:13:34.666Z,497.97
2019-02-28T08:17:31.156Z,486.90
2019-02-28T08:19:53.640Z,454.97
2019-02-28T08:22:24.194Z,447.60
2019-02-28T08:24:53.942Z,457.77
2019-02-28T08:27:25.356Z,444.03
2019-02-28T08:29:54.029Z,467.80
2019-02-28T08:32:23.145Z,433.97
2019-02-28T08:35:01.933Z,460.50
2019-02-28T08:37:31.383Z,415.23
2019-02-28T08:40:00.713Z,404.90
2019-02-28T08:42:30.021Z,378.33
2019-02-28T08:44:59.395Z,372.87
2019-02-28T08:47:29.681Z,339.90
2019-02-28T08:49:58.828Z,332.63
2019-02-28T08:52:29.207Z,325.93
2019-02-28T08:54:59.725Z,325.70
2019-02-28T08:57:29.824Z,306.13
2019-02-28T09:00:10.327Z,317.67
2019-02-28T09:02:41.495Z,301.10
2019-02-28T09:05:12.253Z,317.93
2019-02-28T09:07:44.330Z,283.03
2019-02-28T09:10:19.041Z,279.20
2019-02-28T09:12:48.344Z,284.53
2019-02-28T09:15:17.538Z,295.67
2019-02-28T09:17:48.155Z,294.93
2019-02-28T09:20:18.522Z,278.57
2019-02-28T09:22:47.720Z,252.33
2019-02-28T09:25:21.393Z,262.87
2019-02-28T09:27:48.310Z,271.17
2019-02-28T09:30:35.596Z,256.13
2019-02-28T09:33:06.335Z,268.20
2019-02-28T09:35:35.755Z,234.20
2019-02-28T09:38:07.631Z,225.33
2019-02-28T09:41:01.459Z,224.10
2019-02-28T09:43:30.615Z,204.57
2019-02-28T09:45:59.782Z,202.00
2019-02-28T09:48:30.640Z,193.70
2019-02-28T09:51:00.062Z,179.17
2019-02-28T09:53:29.358Z,189.00
2019-02-28T09:55:59.969Z,181.70
2019-02-28T09:58:33.063Z,164.37
2019-02-28T10:01:02.351Z,151.63
2019-02-28T10:03:34.627Z,149.67
2019-02-28T10:06:06.977Z,155.57
2019-02-28T10:08:36.955Z,140.67
2019-02-28T10:11:07.168Z,113.77
2019-02-28T10:13:36.315Z,130.30
2019-02-28T10:16:05.499Z,113.60
2019-02-28T10:18:35.471Z,107.33
2019-02-28T10:21:05.904Z,108.43
2019-02-28T10:23:35.332Z,109.00
2019-02-28T10:26:04.688Z,97.13
2019-02-28T10:28:35.404Z,77.07
2019-02-28T10:31:04.626Z,112.10
2019-02-28T10:33:34.140Z,121.53
2019-02-28T10:36:03.270Z,156.40
2019-02-28T10:38:33.101Z,180.60
2019-02-28T10:41:03.436Z,199.77
2019-02-28T10:43:32.624Z,175.17
2019-02-28T10:46:01.849Z,194.50
2019-02-28T10:48:31.106Z,187.20
2019-02-28T10:51:12.642Z,188.17
2019-02-28T10:53:33.132Z,166.27
2019-02-28T10:56:02.657Z,184.77
2019-02-28T10:58:31.863Z,198.03
2019-02-28T11:01:01.075Z,229.73
2019-02-28T11:03:32.190Z,203.57
2019-02-28T11:06:02.506Z,148.20
2019-02-28T11:08:31.666Z,140.97
2019-02-28T11:11:02.151Z,126.27
2019-02-28T11:13:32.131Z,123.03
2019-02-28T11:16:02.271Z,136.53
2019-02-28T11:18:31.631Z,151.30
2019-02-28T11:21:00.785Z,156.30
2019-02-28T11:23:29.999Z,144.73
2019-02-28T11:25:59.987Z,140.57
2019-02-28T11:28:29.379Z,108.37
2019-02-28T11:30:58.684Z,123.90
2019-02-28T11:33:27.864Z,119.93
2019-02-28T11:35:58.997Z,123.97
2019-02-28T11:38:29.780Z,101.40
2019-02-28T11:40:59.019Z,111.00
2019-02-28T11:43:28.225Z,128.17
2019-02-28T11:46:00.720Z,120.40
2019-02-28T11:48:28.658Z,117.43
2019-02-28T11:50:57.906Z,107.63
2019-02-28T11:53:27.120Z,94.60
2019-02-28T11:55:56.425Z,91.43
2019-02-28T11:58:25.591Z,88.60
2019-02-28T12:00:55.070Z,99.27
2019-02-28T12:03:26.044Z,85.73
2019-02-28T12:05:56.701Z,82.30
2019-02-28T12:08:25.854Z,79.50
2019-02-28T12:10:58.439Z,79.27
2019-02-28T12:13:26.218Z,71.93
2019-02-28T12:15:55.820Z,60.13
2019-02-28T12:18:26.163Z,70.27
2019-02-28T12:20:55.468Z,54.13
2019-02-28T12:23:29.207Z,54.47
2019-02-28T12:25:58.516Z,68.67
2019-02-28T12:28:27.983Z,61.13
2019-02-28T12:31:00.122Z,55.57
2019-02-28T12:33:28.182Z,56.77
2019-02-28T12:35:57.383Z,59.47
2019-02-28T12:38:29.108Z,52.63
2019-02-28T12:40:57.409Z,60.40
2019-02-28T12:43:26.651Z,56.20
2019-02-28T12:45:56.863Z,35.10
2019-02-28T12:48:27.284Z,41.93
2019-02-28T12:50:57.081Z,38.93
2019-02-28T12:53:26.439Z,42.00
2019-02-28T12:55:55.808Z,39.73
2019-02-28T12:58:25.473Z,40.70
2019-02-28T13:00:56.447Z,25.77
2019-02-28T13:03:26.192Z,29.10
2019-02-28T13:05:55.414Z,41.60
2019-02-28T13:08:25.054Z,41.13
2019-02-28T13:11:06.472Z,29.73
2019-02-28T13:13:39.613Z,34.97
2019-02-28T13:16:09.088Z,45.07
2019-02-28T13:18:43.673Z,35.97
2019-02-28T13:21:13.591Z,40.37
2019-02-28T13:23:42.692Z,24.97
2019-02-28T13:26:13.294Z,35.97
2019-02-28T13:28:42.465Z,34.60
2019-02-28T13:31:12.337Z,42.37
2019-02-28T13:33:41.754Z,34.30
2019-02-28T13:36:13.771Z,34.13
2019-02-28T13:38:45.242Z,28.67
2019-02-28T13:41:18.299Z,39.17
2019-02-28T13:43:47.930Z,49.07
2019-02-28T13:46:17.449Z,54.13
2019-02-28T13:48:47.844Z,45.60
2019-02-28T13:51:21.453Z,48.47
2019-02-28T13:53:50.605Z,41.43
2019-02-28T13:56:19.864Z,51.00
2019-02-28T13:58:49.015Z,41.90
2019-02-28T14:01:19.485Z,36.07
2019-02-28T14:03:49.030Z,37.10
2019-02-28T14:06:19.778Z,38.37
2019-02-28T14:08:49.058Z,38.17
2019-02-28T14:11:18.686Z,29.40
2019-02-28T14:13:47.890Z,36.97
2019-02-28T14:16:17.065Z,27.47
2019-02-28T14:18:46.264Z,27.20
2019-02-28T14:21:16.918Z,28.63
2019-02-28T14:23:46.225Z,24.97
2019-02-28T14:26:15.633Z,40.83
2019-02-28T14:28:46.524Z,26.87
2019-02-28T14:31:15.934Z,28.07
2019-02-28T14:33:45.142Z,26.13
2019-02-28T14:36:17.649Z,18.00
2019-02-28T14:38:47.945Z,18.23
2019-02-28T14:41:18.341Z,26.97
2019-02-28T14:43:47.470Z,27.63
2019-02-28T14:46:18.300Z,31.27
2019-02-28T14:48:47.842Z,24.80
2019-02-28T14:51:16.967Z,30.90
2019-02-28T14:53:49.125Z,27.43
2019-02-28T14:56:35.653Z,34.00
2019-02-28T14:59:04.750Z,25.33
2019-02-28T15:01:33.847Z,24.93
2019-02-28T15:04:03.046Z,19.77
2019-02-28T15:06:32.266Z,18.37
2019-02-28T15:09:01.373Z,30.00
2019-02-28T15:11:31.485Z,22.97
2019-02-28T15:14:01.055Z,23.67
2019-02-28T15:16:30.521Z,29.70
2019-02-28T15:19:01.512Z,29.63
2019-02-28T15:21:30.812Z,31.93
2019-02-28T15:23:59.945Z,33.30
2019-02-28T15:26:29.853Z,36.57
2019-02-28T15:29:01.741Z,29.27
2019-02-28T15:31:31.042Z,19.37
2019-02-28T15:34:02.247Z,19.87
2019-02-28T15:36:31.264Z,23.13
2019-02-28T15:39:00.468Z,28.03
2019-02-28T15:41:30.645Z,27.00
2019-02-28T15:44:01.116Z,29.57
2019-02-28T15:46:30.266Z,26.50
2019-02-28T15:48:59.400Z,22.10
2019-02-28T15:51:29.290Z,16.70
2019-02-28T15:54:01.073Z,31.20
2019-02-28T15:56:30.663Z,33.10
2019-02-28T15:58:59.835Z,38.07
2019-02-28T16:01:32.217Z,30.40
2019-02-28T16:04:01.058Z,25.97
2019-02-28T16:06:30.191Z,28.43
2019-02-28T16:08:59.339Z,33.60
2019-02-28T16:11:28.501Z,18.97
2019-02-28T16:14:00.463Z,32.90
2019-02-28T16:16:28.566Z,29.73
2019-02-28T16:18:57.715Z,35.60
2019-02-28T16:21:26.746Z,29.57
2019-02-28T16:24:02.061Z,31.70
2019-02-28T16:26:30.112Z,22.47
2019-02-28T16:28:59.558Z,49.67
2019-02-28T16:31:28.884Z,30.93
2019-02-28T16:34:08.041Z,32.47
2019-02-28T16:36:29.358Z,45.77
2019-02-28T16:38:58.525Z,31.00
2019-02-28T16:41:30.118Z,24.60
2019-02-28T16:43:59.153Z,29.57
2019-02-28T16:46:30.150Z,26.90
2019-02-28T16:48:59.197Z,32.47
2019-02-28T16:51:29.505Z,25.83
2019-02-28T16:53:59.225Z,25.67
2019-02-28T16:56:28.408Z,37.43
2019-02-28T16:58:58.071Z,36.80
2019-02-28T17:01:27.635Z,32.50
2019-02-28T17:03:57.069Z,19.43
2019-02-28T17:06:26.426Z,24.90
2019-02-28T17:09:14.270Z,18.30
2019-02-28T17:11:51.154Z,18.63
2019-02-28T17:14:20.722Z,20.23
2019-02-28T17:17:14.809Z,27.67
2019-02-28T17:19:44.016Z,28.17
2019-02-28T17:22:17.009Z,24.40
2019-02-28T17:24:48.564Z,18.90
2019-02-28T17:27:29.218Z,26.53
2019-02-28T17:30:16.452Z,13.40
2019-02-28T17:32:45.662Z,15.87
2019-02-28T17:35:14.920Z,19.03
2019-02-28T17:37:44.150Z,22.27
2019-02-28T17:40:14.193Z,20.33
2019-02-28T17:42:46.366Z,20.37
2019-02-28T17:45:32.980Z,22.77
2019-02-28T17:48:39.714Z,23.57
2019-02-28T17:51:35.939Z,25.37
2019-02-28T17:54:36.714Z,22.97
2019-02-28T17:57:59.144Z,28.17
2019-02-28T18:01:01.770Z,26.17
2019-02-28T18:04:10.473Z,23.07
2019-02-28T18:07:35.969Z,22.67
2019-02-28T18:10:29.948Z,29.73
2019-02-28T18:13:27.358Z,26.07
2019-02-28T18:16:50.004Z,31.63
2019-02-28T18:19:40.624Z,35.30
2019-02-28T18:22:51.965Z,38.73
2019-02-28T18:25:57.039Z,14.13
2019-02-28T18:29:06.034Z,29.43
2019-02-28T18:31:35.254Z,28.97
2019-02-28T18:34:21.315Z,27.47
2019-02-28T18:36:52.644Z,31.03
2019-02-28T18:39:25.614Z,42.30
2019-02-28T18:41:54.745Z,38.07
2019-02-28T18:44:24.305Z,47.83
2019-02-28T18:46:53.632Z,30.30
2019-02-28T18:49:22.766Z,37.73
2019-02-28T18:51:51.891Z,40.33
2019-02-28T18:54:21.179Z,16.50
2019-02-28T18:56:50.349Z,34.87
2019-02-28T18:59:19.592Z,31.80
2019-02-28T19:01:48.804Z,28.40
2019-02-28T19:04:17.929Z,23.30
2019-02-28T19:06:47.068Z,39.87
2019-02-28T19:09:24.857Z,48.03
2019-02-28T19:11:54.025Z,39.53
2019-02-28T19:14:23.140Z,30.40
2019-02-28T19:16:54.216Z,34.33
2019-02-28T19:19:23.383Z,32.10
2019-02-28T19:21:52.634Z,28.23
2019-02-28T19:24:21.902Z,28.03
2019-02-28T19:26:51.207Z,28.07
2019-02-28T19:29:20.372Z,30.47
2019-02-28T19:31:49.594Z,27.03
2019-02-28T19:34:18.714Z,40.00
2019-02-28T19:36:47.922Z,42.33
2019-02-28T19:39:18.692Z,39.40
2019-02-28T19:41:47.836Z,55.37
2019-02-28T19:44:17.314Z,42.33
2019-02-28T19:46:46.478Z,49.07
2019-02-28T19:49:15.771Z,37.17
2019-02-28T19:51:44.934Z,28.10
2019-02-28T19:54:14.261Z,42.50
2019-02-28T19:56:47.048Z,29.30
2019-02-28T19:59:16.487Z,34.03
2019-02-28T20:01:45.705Z,40.40
2019-02-28T20:04:15.500Z,48.97
2019-02-28T20:06:44.937Z,58.13
2019-02-28T20:09:14.159Z,53.37
2019-02-28T20:11:43.367Z,47.57
2019-02-28T20:14:12.561Z,42.03
2019-02-28T20:16:41.744Z,34.17
2019-02-28T20:19:10.957Z,39.00
2019-02-28T20:21:40.157Z,38.23
2019-02-28T20:24:09.753Z,39.93
2019-02-28T20:26:38.879Z,34.77
2019-02-28T20:29:07.985Z,46.27
2019-02-28T20:31:37.277Z,49.10
2019-02-28T20:34:06.532Z,56.43
2019-02-28T20:36:35.707Z,60.07
2019-02-28T20:39:08.258Z,52.63
2019-02-28T20:41:37.454Z,59.40
2019-02-28T20:44:06.623Z,42.80
2019-02-28T20:46:35.794Z,42.87
2019-02-28T20:49:04.904Z,45.50
2019-02-28T20:51:34.160Z,44.67
2019-02-28T20:54:03.372Z,47.50
2019-02-28T20:56:32.510Z,52.03
2019-02-28T20:59:01.649Z,43.83
2019-02-28T21:01:30.920Z,55.70
2019-02-28T21:04:00.103Z,59.47
2019-02-28T21:06:29.403Z,52.20
2019-02-28T21:08:58.535Z,55.43
2019-02-28T21:11:27.757Z,41.00
2019-02-28T21:13:57.117Z,43.63
2019-02-28T21:16:26.305Z,43.40
2019-02-28T21:18:55.508Z,46.00
2019-02-28T21:21:24.691Z,57.10
2019-02-28T21:23:53.921Z,60.03
2019-02-28T21:26:23.106Z,58.03
2019-02-28T21:28:53.957Z,60.07
2019-02-28T21:31:23.049Z,76.43
2019-02-28T21:33:53.458Z,66.20
2019-02-28T21:36:24.978Z,56.90
2019-02-28T21:38:54.426Z,53.37
2019-02-28T21:41:23.619Z,56.23
2019-02-28T21:43:52.733Z,54.57
2019-02-28T21:46:21.871Z,62.60
2019-02-28T21:48:53.397Z,63.77
2019-02-28T21:51:23.398Z,64.33
2019-02-28T21:53:56.290Z,74.37
2019-02-28T21:56:25.700Z,70.07
2019-02-28T21:58:54.816Z,79.57
2019-02-28T22:01:23.921Z,85.67
2019-02-28T22:03:53.086Z,75.60
2019-02-28T22:06:23.144Z,85.13
2019-02-28T22:08:52.407Z,75.30
2019-02-28T22:11:21.608Z,80.63
2019-02-28T22:13:50.829Z,68.13
2019-02-28T22:16:19.950Z,60.90
2019-02-28T22:18:49.133Z,68.10
2019-02-28T22:21:18.312Z,65.90
2019-02-28T22:23:48.302Z,56.70
2019-02-28T22:26:19.764Z,71.63
2019-02-28T22:28:48.893Z,71.40
2019-02-28T22:31:53.269Z,86.37
2019-02-28T22:34:26.791Z,78.10
2019-02-28T22:36:55.946Z,88.53
2019-02-28T22:39:25.106Z,79.27
2019-02-28T22:41:54.249Z,82.97
2019-02-28T22:44:23.298Z,90.40
2019-02-28T22:46:52.457Z,76.17
2019-02-28T22:49:21.525Z,57.93
2019-02-28T22:51:52.113Z,66.43
2019-02-28T22:54:23.835Z,65.07
2019-02-28T22:56:53.039Z,58.73
2019-02-28T22:59:22.153Z,52.63
2019-02-28T23:01:53.174Z,47.90
2019-02-28T23:04:23.334Z,61.60
2019-02-28T23:06:52.455Z,73.70
2019-02-28T23:09:23.690Z,69.07
2019-02-28T23:11:53.068Z,91.90
2019-02-28T23:14:23.093Z,79.53
2019-02-28T23:16:53.785Z,82.00
2019-02-28T23:19:23.648Z,85.77
2019-02-28T23:21:54.088Z,93.10
2019-02-28T23:24:24.060Z,87.33
2019-02-28T23:27:13.444Z,71.67
2019-02-28T23:30:12.790Z,74.77
2019-02-28T23:33:07.130Z,74.47
2019-02-28T23:35:41.619Z,86.40
2019-02-28T23:38:11.070Z,78.90
2019-02-28T23:40:40.573Z,93.87
2019-02-28T23:43:10.786Z,115.90
2019-02-28T23:45:41.381Z,110.23
2019-02-28T23:48:10.974Z,117.13
2019-02-28T23:50:44.470Z,115.70
2019-02-28T23:53:13.584Z,139.17
2019-02-28T23:55:43.127Z,147.57
2019-02-28T23:58:12.265Z,156.33
